sensor_id;sensor_type;location;lat;lon;timestamp;P1;durP1;ratioP1;P2;durP2;ratioP2
20486;SDS011;10402;49.012;8.370;2023-07-29T00:01:19;985.10;;;911.73;;
20486;SDS011;10402;49.012;8.370;2023-07-29T00:03:45;953.17;;;883.17;;
20486;SDS011;10402;49.012;8.370;2023-07-29T00:06:10;971.70;;;899.83;;
20486;SDS011;10402;49.012;8.370;2023-07-29T00:08:36;959.40;;;888.73;;
20486;SDS011;10402;49.012;8.370;2023-07-29T00:11:02;977.13;;;904.30;;
20486;SDS011;10402;49.012;8.370;2023-07-29T00:13:27;976.97;;;904.60;;
20486;SDS011;10402;49.012;8.370;2023-07-29T00:15:53;991.27;;;916.77;;
20486;SDS011;10402;49.012;8.370;2023-07-29T00:18:20;974.17;;;902.00;;
20486;SDS011;10402;49.012;8.370;2023-07-29T00:20:47;969.20;;;897.13;;
20486;SDS011;10402;49.012;8.370;2023-07-29T00:23:12;976.50;;;903.17;;
20486;SDS011;10402;49.012;8.370;2023-07-29T00:25:38;978.33;;;904.80;;
20486;SDS011;10402;49.012;8.370;2023-07-29T00:28:03;979.43;;;906.40;;
20486;SDS011;10402;49.012;8.370;2023-07-29T00:30:29;969.17;;;896.73;;
20486;SDS011;10402;49.012;8.370;2023-07-29T00:32:55;998.73;;;922.40;;
20486;SDS011;10402;49.012;8.370;2023-07-29T00:35:20;989.90;;;914.67;;
20486;SDS011;10402;49.012;8.370;2023-07-29T00:37:46;979.03;;;904.80;;
20486;SDS011;10402;49.012;8.370;2023-07-29T00:40:15;983.20;;;908.53;;
20486;SDS011;10402;49.012;8.370;2023-07-29T00:42:44;992.40;;;916.43;;
20486;SDS011;10402;49.012;8.370;2023-07-29T00:45:09;974.23;;;899.80;;
20486;SDS011;10402;49.012;8.370;2023-07-29T00:47:35;976.63;;;901.97;;
20486;SDS011;10402;49.012;8.370;2023-07-29T00:50:01;980.73;;;905.23;;
20486;SDS011;10402;49.012;8.370;2023-07-29T00:52:27;984.00;;;908.83;;
20486;SDS011;10402;49.012;8.370;2023-07-29T00:54:52;989.17;;;912.97;;
20486;SDS011;10402;49.012;8.370;2023-07-29T00:57:18;986.20;;;910.00;;
20486;SDS011;10402;49.012;8.370;2023-07-29T00:59:44;992.80;;;915.63;;
20486;SDS011;10402;49.012;8.370;2023-07-29T01:02:10;983.90;;;908.80;;
20486;SDS011;10402;49.012;8.370;2023-07-29T01:04:36;982.67;;;907.23;;
20486;SDS011;10402;49.012;8.370;2023-07-29T01:09:55;978.37;;;904.20;;
20486;SDS011;10402;49.012;8.370;2023-07-29T01:12:33;968.53;;;894.67;;
20486;SDS011;10402;49.012;8.370;2023-07-29T01:18:15;974.83;;;899.40;;
20486;SDS011;10402;49.012;8.370;2023-07-29T01:20:47;971.17;;;896.60;;
20486;SDS011;10402;49.012;8.370;2023-07-29T01:23:13;967.37;;;892.17;;
20486;SDS011;10402;49.012;8.370;2023-07-29T01:25:40;983.60;;;906.83;;
20486;SDS011;10402;49.012;8.370;2023-07-29T01:28:06;989.63;;;912.57;;
20486;SDS011;10402;49.012;8.370;2023-07-29T01:30:33;974.97;;;899.47;;
20486;SDS011;10402;49.012;8.370;2023-07-29T01:33:05;959.13;;;885.60;;
20486;SDS011;10402;49.012;8.370;2023-07-29T01:35:58;971.67;;;896.50;;
20486;SDS011;10402;49.012;8.370;2023-07-29T01:38:29;974.93;;;900.17;;
20486;SDS011;10402;49.012;8.370;2023-07-29T01:41:00;959.33;;;885.47;;
20486;SDS011;10402;49.012;8.370;2023-07-29T01:43:28;954.23;;;879.93;;
20486;SDS011;10402;49.012;8.370;2023-07-29T01:45:54;964.90;;;890.13;;
20486;SDS011;10402;49.012;8.370;2023-07-29T01:48:19;956.13;;;882.13;;
20486;SDS011;10402;49.012;8.370;2023-07-29T01:50:45;959.17;;;884.93;;
20486;SDS011;10402;49.012;8.370;2023-07-29T01:53:11;939.90;;;868.40;;
20486;SDS011;10402;49.012;8.370;2023-07-29T01:55:36;948.87;;;876.07;;
20486;SDS011;10402;49.012;8.370;2023-07-29T01:58:02;949.63;;;877.67;;
20486;SDS011;10402;49.012;8.370;2023-07-29T02:00:27;929.67;;;859.37;;
20486;SDS011;10402;49.012;8.370;2023-07-29T02:02:53;922.30;;;853.17;;
20486;SDS011;10402;49.012;8.370;2023-07-29T02:05:18;938.63;;;867.97;;
20486;SDS011;10402;49.012;8.370;2023-07-29T02:07:44;923.17;;;853.83;;
20486;SDS011;10402;49.012;8.370;2023-07-29T02:10:09;934.67;;;864.10;;
20486;SDS011;10402;49.012;8.370;2023-07-29T02:12:35;930.53;;;860.80;;
20486;SDS011;10402;49.012;8.370;2023-07-29T02:15:00;938.73;;;868.53;;
20486;SDS011;10402;49.012;8.370;2023-07-29T02:17:26;931.07;;;861.33;;
20486;SDS011;10402;49.012;8.370;2023-07-29T02:19:51;938.73;;;868.07;;
20486;SDS011;10402;49.012;8.370;2023-07-29T02:22:17;913.70;;;845.23;;
20486;SDS011;10402;49.012;8.370;2023-07-29T02:24:43;928.93;;;860.03;;
20486;SDS011;10402;49.012;8.370;2023-07-29T02:27:09;931.90;;;862.67;;
20486;SDS011;10402;49.012;8.370;2023-07-29T02:29:35;915.17;;;847.57;;
20486;SDS011;10402;49.012;8.370;2023-07-29T02:32:01;937.63;;;867.67;;
20486;SDS011;10402;49.012;8.370;2023-07-29T02:34:27;936.70;;;866.03;;
20486;SDS011;10402;49.012;8.370;2023-07-29T02:36:52;930.07;;;860.30;;
20486;SDS011;10402;49.012;8.370;2023-07-29T02:39:18;936.93;;;868.03;;
20486;SDS011;10402;49.012;8.370;2023-07-29T02:41:43;912.63;;;845.50;;
20486;SDS011;10402;49.012;8.370;2023-07-29T02:44:09;927.57;;;858.97;;
20486;SDS011;10402;49.012;8.370;2023-07-29T02:46:34;929.63;;;861.80;;
20486;SDS011;10402;49.012;8.370;2023-07-29T02:49:01;925.57;;;857.47;;
20486;SDS011;10402;49.012;8.370;2023-07-29T02:51:28;924.23;;;856.23;;
20486;SDS011;10402;49.012;8.370;2023-07-29T02:53:54;931.57;;;862.77;;
20486;SDS011;10402;49.012;8.370;2023-07-29T02:56:20;930.10;;;861.90;;
20486;SDS011;10402;49.012;8.370;2023-07-29T02:58:45;928.97;;;861.63;;
20486;SDS011;10402;49.012;8.370;2023-07-29T03:01:11;911.57;;;845.20;;
20486;SDS011;10402;49.012;8.370;2023-07-29T03:03:36;930.23;;;862.37;;
20486;SDS011;10402;49.012;8.370;2023-07-29T03:06:03;932.83;;;864.43;;
20486;SDS011;10402;49.012;8.370;2023-07-29T03:08:31;925.00;;;857.20;;
20486;SDS011;10402;49.012;8.370;2023-07-29T03:10:57;919.53;;;852.73;;
20486;SDS011;10402;49.012;8.370;2023-07-29T03:13:23;926.67;;;858.97;;
20486;SDS011;10402;49.012;8.370;2023-07-29T03:15:48;935.23;;;867.03;;
20486;SDS011;10402;49.012;8.370;2023-07-29T03:18:14;934.90;;;866.17;;
20486;SDS011;10402;49.012;8.370;2023-07-29T03:20:40;928.13;;;860.30;;
20486;SDS011;10402;49.012;8.370;2023-07-29T03:23:06;933.30;;;865.07;;
20486;SDS011;10402;49.012;8.370;2023-07-29T03:25:32;929.83;;;861.73;;
20486;SDS011;10402;49.012;8.370;2023-07-29T03:27:58;931.67;;;863.17;;
20486;SDS011;10402;49.012;8.370;2023-07-29T03:30:23;923.87;;;856.33;;
20486;SDS011;10402;49.012;8.370;2023-07-29T03:32:49;945.10;;;875.77;;
20486;SDS011;10402;49.012;8.370;2023-07-29T03:35:15;924.83;;;856.87;;
20486;SDS011;10402;49.012;8.370;2023-07-29T03:37:41;931.10;;;863.47;;
20486;SDS011;10402;49.012;8.370;2023-07-29T03:40:07;927.93;;;861.00;;
20486;SDS011;10402;49.012;8.370;2023-07-29T03:42:34;916.13;;;849.83;;
20486;SDS011;10402;49.012;8.370;2023-07-29T03:45:00;936.87;;;868.37;;
20486;SDS011;10402;49.012;8.370;2023-07-29T03:47:25;930.07;;;862.33;;
20486;SDS011;10402;49.012;8.370;2023-07-29T03:49:51;942.17;;;872.83;;
20486;SDS011;10402;49.012;8.370;2023-07-29T03:52:16;932.67;;;865.37;;
20486;SDS011;10402;49.012;8.370;2023-07-29T03:54:42;926.50;;;859.17;;
20486;SDS011;10402;49.012;8.370;2023-07-29T03:57:07;926.83;;;859.07;;
20486;SDS011;10402;49.012;8.370;2023-07-29T03:59:33;933.87;;;865.70;;
20486;SDS011;10402;49.012;8.370;2023-07-29T04:01:59;924.83;;;857.93;;
20486;SDS011;10402;49.012;8.370;2023-07-29T04:04:24;924.73;;;858.17;;
20486;SDS011;10402;49.012;8.370;2023-07-29T04:06:50;937.63;;;870.00;;
20486;SDS011;10402;49.012;8.370;2023-07-29T04:09:15;917.93;;;851.73;;
20486;SDS011;10402;49.012;8.370;2023-07-29T04:11:41;914.37;;;848.03;;
20486;SDS011;10402;49.012;8.370;2023-07-29T04:14:06;913.07;;;847.73;;
20486;SDS011;10402;49.012;8.370;2023-07-29T04:16:32;920.40;;;855.47;;
20486;SDS011;10402;49.012;8.370;2023-07-29T04:18:57;927.87;;;859.80;;
20486;SDS011;10402;49.012;8.370;2023-07-29T04:21:23;941.27;;;870.70;;
20486;SDS011;10402;49.012;8.370;2023-07-29T04:23:48;940.90;;;871.03;;
20486;SDS011;10402;49.012;8.370;2023-07-29T04:26:14;958.97;;;886.97;;
20486;SDS011;10402;49.012;8.370;2023-07-29T04:28:39;970.00;;;897.07;;
20486;SDS011;10402;49.012;8.370;2023-07-29T04:31:05;960.23;;;888.07;;
20486;SDS011;10402;49.012;8.370;2023-07-29T04:33:31;962.13;;;890.30;;
20486;SDS011;10402;49.012;8.370;2023-07-29T04:35:56;961.97;;;890.53;;
20486;SDS011;10402;49.012;8.370;2023-07-29T04:38:23;966.03;;;895.00;;
20486;SDS011;10402;49.012;8.370;2023-07-29T04:40:52;938.77;;;870.97;;
20486;SDS011;10402;49.012;8.370;2023-07-29T04:43:18;959.73;;;889.53;;
20486;SDS011;10402;49.012;8.370;2023-07-29T04:45:43;961.70;;;892.00;;
20486;SDS011;10402;49.012;8.370;2023-07-29T04:48:09;961.23;;;891.87;;
20486;SDS011;10402;49.012;8.370;2023-07-29T04:50:35;970.93;;;900.53;;
20486;SDS011;10402;49.012;8.370;2023-07-29T04:53:00;958.43;;;888.90;;
20486;SDS011;10402;49.012;8.370;2023-07-29T04:55:26;970.97;;;900.20;;
20486;SDS011;10402;49.012;8.370;2023-07-29T04:57:51;966.20;;;895.93;;
20486;SDS011;10402;49.012;8.370;2023-07-29T05:00:17;971.33;;;900.63;;
20486;SDS011;10402;49.012;8.370;2023-07-29T05:02:42;966.33;;;896.37;;
20486;SDS011;10402;49.012;8.370;2023-07-29T05:05:08;966.07;;;895.73;;
20486;SDS011;10402;49.012;8.370;2023-07-29T05:07:33;957.23;;;887.57;;
20486;SDS011;10402;49.012;8.370;2023-07-29T05:09:59;970.83;;;900.47;;
20486;SDS011;10402;49.012;8.370;2023-07-29T05:12:25;971.03;;;899.37;;
20486;SDS011;10402;49.012;8.370;2023-07-29T05:14:50;960.63;;;890.60;;
20486;SDS011;10402;49.012;8.370;2023-07-29T05:17:16;970.67;;;899.17;;
20486;SDS011;10402;49.012;8.370;2023-07-29T05:19:42;963.93;;;892.77;;
20486;SDS011;10402;49.012;8.370;2023-07-29T05:22:07;955.50;;;886.20;;
20486;SDS011;10402;49.012;8.370;2023-07-29T05:24:33;953.50;;;883.23;;
20486;SDS011;10402;49.012;8.370;2023-07-29T05:26:58;967.07;;;895.47;;
20486;SDS011;10402;49.012;8.370;2023-07-29T05:29:24;965.40;;;894.53;;
20486;SDS011;10402;49.012;8.370;2023-07-29T05:31:49;965.30;;;894.80;;
20486;SDS011;10402;49.012;8.370;2023-07-29T05:34:15;977.17;;;904.87;;
20486;SDS011;10402;49.012;8.370;2023-07-29T05:36:40;961.77;;;891.10;;
20486;SDS011;10402;49.012;8.370;2023-07-29T05:39:06;951.53;;;881.47;;
20486;SDS011;10402;49.012;8.370;2023-07-29T05:41:32;959.90;;;889.93;;
20486;SDS011;10402;49.012;8.370;2023-07-29T05:43:58;958.00;;;887.70;;
20486;SDS011;10402;49.012;8.370;2023-07-29T05:46:23;959.60;;;889.03;;
20486;SDS011;10402;49.012;8.370;2023-07-29T05:48:49;971.40;;;899.90;;
20486;SDS011;10402;49.012;8.370;2023-07-29T05:51:14;966.20;;;895.90;;
20486;SDS011;10402;49.012;8.370;2023-07-29T05:53:40;954.37;;;884.47;;
20486;SDS011;10402;49.012;8.370;2023-07-29T05:56:05;969.40;;;898.03;;
20486;SDS011;10402;49.012;8.370;2023-07-29T05:58:31;965.97;;;895.23;;
20486;SDS011;10402;49.012;8.370;2023-07-29T06:00:57;974.13;;;903.57;;
20486;SDS011;10402;49.012;8.370;2023-07-29T06:03:23;975.40;;;904.77;;
20486;SDS011;10402;49.012;8.370;2023-07-29T06:05:49;957.87;;;888.07;;
20486;SDS011;10402;49.012;8.370;2023-07-29T06:08:15;961.07;;;892.00;;
20486;SDS011;10402;49.012;8.370;2023-07-29T06:10:40;975.10;;;904.50;;
20486;SDS011;10402;49.012;8.370;2023-07-29T06:13:06;969.67;;;900.27;;
20486;SDS011;10402;49.012;8.370;2023-07-29T06:15:31;980.70;;;909.93;;
20486;SDS011;10402;49.012;8.370;2023-07-29T06:17:57;971.33;;;901.37;;
20486;SDS011;10402;49.012;8.370;2023-07-29T06:20:22;958.20;;;889.97;;
20486;SDS011;10402;49.012;8.370;2023-07-29T06:22:48;947.23;;;878.63;;
20486;SDS011;10402;49.012;8.370;2023-07-29T06:25:14;951.23;;;882.90;;
20486;SDS011;10402;49.012;8.370;2023-07-29T06:27:39;954.50;;;885.87;;
20486;SDS011;10402;49.012;8.370;2023-07-29T06:30:05;958.17;;;889.00;;
20486;SDS011;10402;49.012;8.370;2023-07-29T06:32:31;964.47;;;894.97;;
20486;SDS011;10402;49.012;8.370;2023-07-29T06:34:56;954.80;;;885.63;;
20486;SDS011;10402;49.012;8.370;2023-07-29T06:37:22;949.07;;;881.20;;
20486;SDS011;10402;49.012;8.370;2023-07-29T06:39:48;953.93;;;885.83;;
20486;SDS011;10402;49.012;8.370;2023-07-29T06:42:13;945.57;;;878.47;;
20486;SDS011;10402;49.012;8.370;2023-07-29T06:44:39;946.57;;;880.17;;
20486;SDS011;10402;49.012;8.370;2023-07-29T06:47:05;961.00;;;892.13;;
20486;SDS011;10402;49.012;8.370;2023-07-29T06:49:30;961.17;;;891.83;;
20486;SDS011;10402;49.012;8.370;2023-07-29T06:51:56;935.00;;;869.33;;
20486;SDS011;10402;49.012;8.370;2023-07-29T06:54:25;946.80;;;879.67;;
20486;SDS011;10402;49.012;8.370;2023-07-29T06:56:51;938.50;;;871.90;;
20486;SDS011;10402;49.012;8.370;2023-07-29T06:59:17;950.13;;;883.23;;
20486;SDS011;10402;49.012;8.370;2023-07-29T07:01:43;934.13;;;868.73;;
20486;SDS011;10402;49.012;8.370;2023-07-29T07:04:08;966.27;;;897.67;;
20486;SDS011;10402;49.012;8.370;2023-07-29T07:06:34;941.83;;;875.33;;
20486;SDS011;10402;49.012;8.370;2023-07-29T07:09:00;955.43;;;888.10;;
20486;SDS011;10402;49.012;8.370;2023-07-29T07:11:25;951.37;;;884.23;;
20486;SDS011;10402;49.012;8.370;2023-07-29T07:13:51;954.40;;;887.53;;
20486;SDS011;10402;49.012;8.370;2023-07-29T07:16:16;941.07;;;875.57;;
20486;SDS011;10402;49.012;8.370;2023-07-29T07:18:42;968.13;;;899.80;;
20486;SDS011;10402;49.012;8.370;2023-07-29T07:21:08;936.90;;;871.90;;
20486;SDS011;10402;49.012;8.370;2023-07-29T07:23:33;944.47;;;878.57;;
20486;SDS011;10402;49.012;8.370;2023-07-29T07:25:59;933.80;;;868.90;;
20486;SDS011;10402;49.012;8.370;2023-07-29T07:28:24;950.43;;;884.03;;
20486;SDS011;10402;49.012;8.370;2023-07-29T07:30:50;941.43;;;876.50;;
20486;SDS011;10402;49.012;8.370;2023-07-29T07:33:16;959.77;;;893.07;;
20486;SDS011;10402;49.012;8.370;2023-07-29T07:35:41;940.17;;;874.80;;
20486;SDS011;10402;49.012;8.370;2023-07-29T07:38:07;944.23;;;878.63;;
20486;SDS011;10402;49.012;8.370;2023-07-29T07:40:34;947.93;;;882.07;;
20486;SDS011;10402;49.012;8.370;2023-07-29T07:43:00;956.47;;;889.40;;
20486;SDS011;10402;49.012;8.370;2023-07-29T07:45:26;970.37;;;901.67;;
20486;SDS011;10402;49.012;8.370;2023-07-29T07:47:52;953.50;;;887.10;;
20486;SDS011;10402;49.012;8.370;2023-07-29T07:50:18;968.27;;;900.53;;
20486;SDS011;10402;49.012;8.370;2023-07-29T07:52:44;969.67;;;901.70;;
20486;SDS011;10402;49.012;8.370;2023-07-29T07:55:10;968.90;;;901.20;;
20486;SDS011;10402;49.012;8.370;2023-07-29T07:57:35;972.10;;;903.60;;
20486;SDS011;10402;49.012;8.370;2023-07-29T08:00:01;959.73;;;892.23;;
20486;SDS011;10402;49.012;8.370;2023-07-29T08:02:27;958.73;;;892.00;;
20486;SDS011;10402;49.012;8.370;2023-07-29T08:04:52;970.53;;;902.50;;
20486;SDS011;10402;49.012;8.370;2023-07-29T08:07:18;966.87;;;898.97;;
20486;SDS011;10402;49.012;8.370;2023-07-29T08:09:43;964.03;;;895.97;;
20486;SDS011;10402;49.012;8.370;2023-07-29T08:12:09;968.57;;;900.43;;
20486;SDS011;10402;49.012;8.370;2023-07-29T08:14:34;967.93;;;899.80;;
20486;SDS011;10402;49.012;8.370;2023-07-29T08:17:00;983.67;;;914.13;;
20486;SDS011;10402;49.012;8.370;2023-07-29T08:19:26;978.37;;;909.40;;
20486;SDS011;10402;49.012;8.370;2023-07-29T08:21:52;997.10;;;926.10;;
20486;SDS011;10402;49.012;8.370;2023-07-29T08:24:18;981.43;;;911.73;;
20486;SDS011;10402;49.012;8.370;2023-07-29T08:26:43;993.83;;;922.57;;
20486;SDS011;10402;49.012;8.370;2023-07-29T08:29:09;988.73;;;917.93;;
20486;SDS011;10402;49.012;8.370;2023-07-29T08:31:34;981.10;;;910.87;;
20486;SDS011;10402;49.012;8.370;2023-07-29T08:34:00;1004.97;;;932.50;;
20486;SDS011;10402;49.012;8.370;2023-07-29T08:36:26;990.83;;;919.53;;
20486;SDS011;10402;49.012;8.370;2023-07-29T08:38:51;994.70;;;922.67;;
20486;SDS011;10402;49.012;8.370;2023-07-29T08:41:21;991.57;;;919.97;;
20486;SDS011;10402;49.012;8.370;2023-07-29T08:43:52;992.30;;;921.00;;
20486;SDS011;10402;49.012;8.370;2023-07-29T08:46:21;994.70;;;923.43;;
20486;SDS011;10402;49.012;8.370;2023-07-29T08:48:47;991.17;;;919.23;;
20486;SDS011;10402;49.012;8.370;2023-07-29T08:51:13;993.17;;;921.57;;
20486;SDS011;10402;49.012;8.370;2023-07-29T08:53:40;1001.07;;;929.17;;
20486;SDS011;10402;49.012;8.370;2023-07-29T08:56:06;996.33;;;923.83;;
20486;SDS011;10402;49.012;8.370;2023-07-29T08:58:33;990.37;;;919.40;;
20486;SDS011;10402;49.012;8.370;2023-07-29T09:00:59;1001.43;;;928.77;;
20486;SDS011;10402;49.012;8.370;2023-07-29T09:03:25;1019.53;;;945.73;;
20486;SDS011;10402;49.012;8.370;2023-07-29T09:05:51;1007.63;;;934.93;;
20486;SDS011;10402;49.012;8.370;2023-07-29T09:08:18;1002.03;;;929.83;;
20486;SDS011;10402;49.012;8.370;2023-07-29T09:10:46;994.50;;;922.57;;
20486;SDS011;10402;49.012;8.370;2023-07-29T09:13:11;999.30;;;927.33;;
20486;SDS011;10402;49.012;8.370;2023-07-29T09:15:37;1010.77;;;938.17;;
20486;SDS011;10402;49.012;8.370;2023-07-29T09:18:25;1005.07;;;932.63;;
20486;SDS011;10402;49.012;8.370;2023-07-29T09:20:50;999.87;;;928.57;;
20486;SDS011;10402;49.012;8.370;2023-07-29T09:23:16;999.37;;;927.77;;
20486;SDS011;10402;49.012;8.370;2023-07-29T09:25:41;1003.73;;;931.67;;
20486;SDS011;10402;49.012;8.370;2023-07-29T09:28:09;1001.10;;;929.67;;
20486;SDS011;10402;49.012;8.370;2023-07-29T09:30:37;1009.00;;;936.43;;
20486;SDS011;10402;49.012;8.370;2023-07-29T09:33:03;1016.57;;;943.83;;
20486;SDS011;10402;49.012;8.370;2023-07-29T09:35:30;1009.27;;;937.07;;
20486;SDS011;10402;49.012;8.370;2023-07-29T09:37:57;1018.10;;;945.30;;
20486;SDS011;10402;49.012;8.370;2023-07-29T09:40:23;1011.23;;;938.73;;
20486;SDS011;10402;49.012;8.370;2023-07-29T09:42:52;1001.90;;;930.10;;
20486;SDS011;10402;49.012;8.370;2023-07-29T09:45:20;998.03;;;927.23;;
20486;SDS011;10402;49.012;8.370;2023-07-29T09:47:46;1010.10;;;937.40;;
20486;SDS011;10402;49.012;8.370;2023-07-29T09:50:12;1012.40;;;938.57;;
20486;SDS011;10402;49.012;8.370;2023-07-29T09:52:38;1021.70;;;947.47;;
20486;SDS011;10402;49.012;8.370;2023-07-29T09:55:04;1030.00;;;954.53;;
20486;SDS011;10402;49.012;8.370;2023-07-29T09:57:31;1027.53;;;952.10;;
20486;SDS011;10402;49.012;8.370;2023-07-29T09:59:57;1030.13;;;954.53;;
20486;SDS011;10402;49.012;8.370;2023-07-29T10:02:23;1035.47;;;959.43;;
20486;SDS011;10402;49.012;8.370;2023-07-29T10:04:50;1024.37;;;949.23;;
20486;SDS011;10402;49.012;8.370;2023-07-29T10:07:17;1043.90;;;966.30;;
20486;SDS011;10402;49.012;8.370;2023-07-29T10:09:44;1043.43;;;966.73;;
20486;SDS011;10402;49.012;8.370;2023-07-29T10:12:10;1038.23;;;962.03;;
20486;SDS011;10402;49.012;8.370;2023-07-29T10:14:37;1039.80;;;963.37;;
20486;SDS011;10402;49.012;8.370;2023-07-29T10:17:04;1031.20;;;956.10;;
20486;SDS011;10402;49.012;8.370;2023-07-29T10:19:30;1019.53;;;944.67;;
20486;SDS011;10402;49.012;8.370;2023-07-29T10:21:58;1019.87;;;945.17;;
20486;SDS011;10402;49.012;8.370;2023-07-29T10:24:28;1039.23;;;962.07;;
20486;SDS011;10402;49.012;8.370;2023-07-29T10:26:59;1047.20;;;969.00;;
20486;SDS011;10402;49.012;8.370;2023-07-29T10:29:30;1045.53;;;967.57;;
20486;SDS011;10402;49.012;8.370;2023-07-29T10:31:58;1040.30;;;962.17;;
20486;SDS011;10402;49.012;8.370;2023-07-29T10:34:27;1029.30;;;952.23;;
20486;SDS011;10402;49.012;8.370;2023-07-29T10:36:54;1027.60;;;950.40;;
20486;SDS011;10402;49.012;8.370;2023-07-29T10:39:20;1058.93;;;978.53;;
20486;SDS011;10402;49.012;8.370;2023-07-29T10:41:56;1035.20;;;957.47;;
20486;SDS011;10402;49.012;8.370;2023-07-29T10:47:13;1030.23;;;952.80;;
20486;SDS011;10402;49.012;8.370;2023-07-29T10:49:52;1013.53;;;939.20;;
20486;SDS011;10402;49.012;8.370;2023-07-29T10:54:56;1015.97;;;941.13;;
20486;SDS011;10402;49.012;8.370;2023-07-29T10:57:36;1018.73;;;943.83;;
20486;SDS011;10402;49.012;8.370;2023-07-29T11:00:03;1003.40;;;930.27;;
20486;SDS011;10402;49.012;8.370;2023-07-29T11:02:36;999.50;;;927.47;;
20486;SDS011;10402;49.012;8.370;2023-07-29T11:05:06;1007.23;;;934.87;;
20486;SDS011;10402;49.012;8.370;2023-07-29T11:07:45;996.17;;;924.77;;
20486;SDS011;10402;49.012;8.370;2023-07-29T11:10:15;992.77;;;921.63;;
20486;SDS011;10402;49.012;8.370;2023-07-29T11:12:47;997.03;;;925.43;;
20486;SDS011;10402;49.012;8.370;2023-07-29T11:20:21;996.80;;;924.57;;
20486;SDS011;10402;49.012;8.370;2023-07-29T11:22:49;992.87;;;922.57;;
20486;SDS011;10402;49.012;8.370;2023-07-29T11:25:15;999.10;;;927.97;;
20486;SDS011;10402;49.012;8.370;2023-07-29T11:27:42;997.93;;;927.30;;
20486;SDS011;10402;49.012;8.370;2023-07-29T11:30:09;996.60;;;925.90;;
20486;SDS011;10402;49.012;8.370;2023-07-29T11:32:36;989.77;;;920.17;;
20486;SDS011;10402;49.012;8.370;2023-07-29T11:35:10;989.57;;;919.73;;
20486;SDS011;10402;49.012;8.370;2023-07-29T11:37:37;1000.27;;;930.13;;
20486;SDS011;10402;49.012;8.370;2023-07-29T11:40:04;977.77;;;910.07;;
20486;SDS011;10402;49.012;8.370;2023-07-29T11:42:31;963.17;;;896.13;;
20486;SDS011;10402;49.012;8.370;2023-07-29T11:44:58;967.30;;;899.10;;
20486;SDS011;10402;49.012;8.370;2023-07-29T11:47:24;958.90;;;892.53;;
20486;SDS011;10402;49.012;8.370;2023-07-29T11:49:50;960.60;;;893.67;;
20486;SDS011;10402;49.012;8.370;2023-07-29T11:52:15;957.63;;;891.60;;
20486;SDS011;10402;49.012;8.370;2023-07-29T11:54:44;961.70;;;894.80;;
20486;SDS011;10402;49.012;8.370;2023-07-29T11:57:12;959.70;;;893.53;;
20486;SDS011;10402;49.012;8.370;2023-07-29T11:59:39;954.47;;;889.03;;
20486;SDS011;10402;49.012;8.370;2023-07-29T12:02:10;952.90;;;887.67;;
20486;SDS011;10402;49.012;8.370;2023-07-29T12:04:38;962.30;;;896.20;;
20486;SDS011;10402;49.012;8.370;2023-07-29T12:07:04;955.50;;;890.03;;
20486;SDS011;10402;49.012;8.370;2023-07-29T12:09:31;953.10;;;888.27;;
20486;SDS011;10402;49.012;8.370;2023-07-29T12:11:57;970.90;;;904.83;;
20486;SDS011;10402;49.012;8.370;2023-07-29T12:14:25;978.90;;;910.53;;
20486;SDS011;10402;49.012;8.370;2023-07-29T12:16:52;957.00;;;890.97;;
20486;SDS011;10402;49.012;8.370;2023-07-29T12:19:18;964.53;;;898.33;;
20486;SDS011;10402;49.012;8.370;2023-07-29T12:21:44;953.80;;;888.20;;
20486;SDS011;10402;49.012;8.370;2023-07-29T12:24:13;974.63;;;906.57;;
20486;SDS011;10402;49.012;8.370;2023-07-29T12:26:39;970.00;;;903.50;;
20486;SDS011;10402;49.012;8.370;2023-07-29T12:29:13;950.63;;;886.20;;
20486;SDS011;10402;49.012;8.370;2023-07-29T12:31:39;947.53;;;883.13;;
20486;SDS011;10402;49.012;8.370;2023-07-29T12:34:05;940.00;;;876.53;;
20486;SDS011;10402;49.012;8.370;2023-07-29T12:36:44;942.57;;;879.20;;
20486;SDS011;10402;49.012;8.370;2023-07-29T12:39:27;952.27;;;887.83;;
20486;SDS011;10402;49.012;8.370;2023-07-29T12:41:57;980.47;;;912.27;;
20486;SDS011;10402;49.012;8.370;2023-07-29T12:44:24;1018.10;;;944.93;;
20486;SDS011;10402;49.012;8.370;2023-07-29T12:46:51;981.70;;;913.40;;
20486;SDS011;10402;49.012;8.370;2023-07-29T12:49:17;989.50;;;920.37;;
20486;SDS011;10402;49.012;8.370;2023-07-29T12:51:43;995.50;;;925.70;;
20486;SDS011;10402;49.012;8.370;2023-07-29T12:54:08;970.60;;;902.53;;
20486;SDS011;10402;49.012;8.370;2023-07-29T12:56:34;987.37;;;918.20;;
20486;SDS011;10402;49.012;8.370;2023-07-29T12:59:00;990.87;;;920.63;;
20486;SDS011;10402;49.012;8.370;2023-07-29T13:01:26;973.67;;;904.57;;
20486;SDS011;10402;49.012;8.370;2023-07-29T13:03:53;969.80;;;900.70;;
20486;SDS011;10402;49.012;8.370;2023-07-29T13:06:19;965.30;;;896.27;;
20486;SDS011;10402;49.012;8.370;2023-07-29T13:08:45;982.47;;;911.60;;
20486;SDS011;10402;49.012;8.370;2023-07-29T13:11:11;952.67;;;883.93;;
20486;SDS011;10402;49.012;8.370;2023-07-29T13:13:37;951.67;;;882.80;;
20486;SDS011;10402;49.012;8.370;2023-07-29T13:16:03;950.93;;;883.00;;
20486;SDS011;10402;49.012;8.370;2023-07-29T13:18:29;953.37;;;885.50;;
20486;SDS011;10402;49.012;8.370;2023-07-29T13:20:54;968.33;;;899.10;;
20486;SDS011;10402;49.012;8.370;2023-07-29T13:23:20;978.13;;;907.40;;
20486;SDS011;10402;49.012;8.370;2023-07-29T13:25:46;979.57;;;907.23;;
20486;SDS011;10402;49.012;8.370;2023-07-29T13:28:12;991.70;;;918.03;;
20486;SDS011;10402;49.012;8.370;2023-07-29T13:30:38;989.17;;;915.47;;
20486;SDS011;10402;49.012;8.370;2023-07-29T13:33:07;998.07;;;922.60;;
20486;SDS011;10402;49.012;8.370;2023-07-29T13:35:33;990.23;;;915.03;;
20486;SDS011;10402;49.012;8.370;2023-07-29T13:37:59;1001.50;;;925.67;;
20486;SDS011;10402;49.012;8.370;2023-07-29T13:40:27;994.70;;;919.23;;
20486;SDS011;10402;49.012;8.370;2023-07-29T13:42:53;999.77;;;923.63;;
20486;SDS011;10402;49.012;8.370;2023-07-29T13:45:19;1002.60;;;926.83;;
20486;SDS011;10402;49.012;8.370;2023-07-29T13:47:44;1004.33;;;927.90;;
20486;SDS011;10402;49.012;8.370;2023-07-29T13:50:10;988.37;;;914.07;;
20486;SDS011;10402;49.012;8.370;2023-07-29T13:52:36;990.37;;;915.77;;
20486;SDS011;10402;49.012;8.370;2023-07-29T13:55:03;1000.20;;;925.30;;
20486;SDS011;10402;49.012;8.370;2023-07-29T13:57:29;982.27;;;909.53;;
20486;SDS011;10402;49.012;8.370;2023-07-29T13:59:55;997.63;;;923.57;;
20486;SDS011;10402;49.012;8.370;2023-07-29T14:02:20;989.43;;;916.00;;
20486;SDS011;10402;49.012;8.370;2023-07-29T14:04:46;979.07;;;907.30;;
20486;SDS011;10402;49.012;8.370;2023-07-29T14:07:11;980.17;;;909.30;;